createdAt,value
2023-02-14T00:01:43.359Z,3.83
2023-02-14T00:03:44.963Z,4.30
2023-02-14T00:05:46.582Z,4.05
2023-02-14T00:07:48.283Z,3.97
2023-02-14T00:09:49.936Z,3.70
2023-02-14T00:11:51.600Z,4.00
2023-02-14T00:14:11.684Z,3.78
2023-02-14T00:16:13.372Z,4.07
2023-02-14T00:18:15.018Z,3.72
2023-02-14T00:20:16.890Z,3.85
2023-02-14T00:22:18.555Z,3.75
2023-02-14T00:24:23.353Z,3.95
2023-02-14T00:26:24.996Z,3.53
2023-02-14T00:28:26.624Z,3.80
2023-02-14T00:30:28.436Z,3.72
2023-02-14T00:32:30.405Z,3.30
2023-02-14T00:34:33.307Z,4.00
2023-02-14T00:36:35.528Z,3.65
2023-02-14T00:38:37.140Z,3.80
2023-02-14T00:40:38.745Z,3.75
2023-02-14T00:42:40.345Z,3.42
2023-02-14T00:44:42.010Z,3.88
2023-02-14T00:46:44.532Z,3.67
2023-02-14T00:48:46.641Z,3.50
2023-02-14T00:50:48.269Z,3.67
2023-02-14T00:52:49.918Z,3.70
2023-02-14T00:54:51.568Z,3.80
2023-02-14T00:56:53.173Z,3.75
2023-02-14T00:58:54.988Z,3.90
2023-02-14T01:00:57.584Z,3.60
2023-02-14T01:02:59.485Z,3.20
2023-02-14T01:05:01.110Z,3.95
2023-02-14T01:07:02.712Z,3.65
2023-02-14T01:09:05.064Z,4.20
2023-02-14T01:11:08.708Z,3.90
2023-02-14T01:13:11.761Z,3.63
2023-02-14T01:15:13.457Z,4.45
2023-02-14T01:17:15.101Z,3.28
2023-02-14T01:19:16.996Z,3.90
2023-02-14T01:21:20.282Z,3.55
2023-02-14T01:23:21.902Z,4.40
2023-02-14T01:25:23.695Z,3.28
2023-02-14T01:27:25.343Z,3.58
2023-02-14T01:29:27.215Z,3.25
2023-02-14T01:31:31.745Z,3.85
2023-02-14T01:33:33.494Z,3.70
2023-02-14T01:35:38.588Z,3.78
2023-02-14T01:37:40.487Z,3.72
2023-02-14T01:39:42.270Z,3.83
2023-02-14T01:41:45.401Z,3.72
2023-02-14T01:43:55.832Z,3.65
2023-02-14T01:45:57.530Z,3.97
2023-02-14T01:47:59.344Z,4.05
2023-02-14T01:50:10.922Z,3.60
2023-02-14T01:52:26.535Z,3.70
2023-02-14T01:54:31.727Z,4.25
2023-02-14T01:56:38.239Z,3.90
2023-02-14T01:58:44.971Z,3.60
2023-02-14T02:01:00.246Z,4.10
2023-02-14T02:03:05.268Z,3.55
2023-02-14T02:05:07.071Z,3.70
2023-02-14T02:07:23.329Z,4.18
2023-02-14T02:09:50.590Z,3.78
2023-02-14T02:11:52.361Z,3.22
2023-02-14T02:13:54.666Z,3.78
2023-02-14T02:16:38.222Z,3.60
2023-02-14T02:18:51.604Z,3.70
2023-02-14T02:21:10.728Z,3.70
2023-02-14T02:23:45.885Z,3.90
2023-02-14T02:26:25.262Z,4.05
2023-02-14T02:29:02.881Z,3.88
2023-02-14T02:31:50.010Z,3.60
2023-02-14T02:34:03.941Z,3.58
2023-02-14T02:36:17.625Z,3.58
2023-02-14T02:38:49.509Z,4.10
2023-02-14T02:41:11.840Z,3.72
2023-02-14T02:43:22.620Z,3.78
2023-02-14T02:45:57.275Z,3.78
2023-02-14T02:48:10.546Z,3.70
2023-02-14T02:50:55.818Z,3.67
2023-02-14T02:53:07.269Z,3.92
2023-02-14T02:55:22.957Z,3.88
2023-02-14T02:57:34.453Z,3.85
2023-02-14T02:59:41.759Z,3.30
2023-02-14T03:01:45.173Z,3.50
2023-02-14T03:04:08.403Z,4.38
2023-02-14T03:06:10.191Z,3.58
2023-02-14T03:08:11.851Z,3.33
2023-02-14T03:10:19.030Z,4.03
2023-02-14T03:12:58.137Z,3.65
2023-02-14T03:15:08.683Z,3.70
2023-02-14T03:17:43.258Z,3.85
2023-02-14T03:20:13.804Z,4.07
2023-02-14T03:22:22.285Z,3.95
2023-02-14T03:24:36.397Z,3.70
2023-02-14T03:27:14.943Z,3.88
2023-02-14T03:29:21.156Z,3.58
2023-02-14T03:31:44.089Z,4.20
2023-02-14T03:34:01.004Z,3.47
2023-02-14T03:36:18.396Z,3.72
2023-02-14T03:38:48.096Z,4.00
2023-02-14T03:40:57.906Z,3.78
2023-02-14T03:43:03.011Z,3.45
2023-02-14T03:45:07.969Z,3.65
2023-02-14T03:47:16.694Z,4.10
2023-02-14T03:49:23.303Z,4.25
2023-02-14T03:51:26.134Z,4.13
2023-02-14T03:53:33.186Z,4.55
2023-02-14T03:55:47.170Z,4.25
2023-02-14T03:58:11.946Z,3.88
2023-02-14T04:00:14.587Z,3.78
2023-02-14T04:02:16.175Z,4.07
2023-02-14T04:04:24.019Z,3.95
2023-02-14T04:06:25.642Z,3.90
2023-02-14T04:08:29.478Z,4.15
2023-02-14T04:10:32.254Z,4.00
2023-02-14T04:12:37.968Z,4.30
2023-02-14T04:14:39.978Z,3.97
2023-02-14T04:17:00.300Z,4.15
2023-02-14T04:19:20.800Z,4.10
2023-02-14T04:21:22.459Z,4.60
2023-02-14T04:23:24.200Z,4.00
2023-02-14T04:25:25.954Z,4.00
2023-02-14T04:27:27.689Z,3.80
2023-02-14T04:29:29.289Z,3.60
2023-02-14T04:31:31.058Z,4.00
2023-02-14T04:33:33.523Z,4.00
2023-02-14T04:35:35.790Z,3.60
2023-02-14T04:37:37.467Z,3.67
2023-02-14T04:39:39.377Z,3.83
2023-02-14T04:41:41.084Z,3.67
2023-02-14T04:43:42.684Z,3.80
2023-02-14T04:45:44.369Z,4.15
2023-02-14T04:47:46.372Z,3.63
2023-02-14T04:49:47.964Z,3.63
2023-02-14T04:51:49.677Z,3.70
2023-02-14T04:53:51.294Z,3.60
2023-02-14T04:55:52.985Z,3.17
2023-02-14T04:57:54.687Z,3.47
2023-02-14T04:59:56.425Z,3.25
2023-02-14T05:01:58.223Z,3.33
2023-02-14T05:03:59.986Z,3.40
2023-02-14T05:06:01.725Z,3.28
2023-02-14T05:08:03.407Z,3.80
2023-02-14T05:10:05.981Z,3.15
2023-02-14T05:12:07.763Z,3.47
2023-02-14T05:14:09.660Z,3.60
2023-02-14T05:16:11.370Z,3.30
2023-02-14T05:18:13.054Z,3.00
2023-02-14T05:20:14.825Z,3.70
2023-02-14T05:22:18.479Z,3.53
2023-02-14T05:24:20.249Z,3.60
2023-02-14T05:26:21.919Z,3.25
2023-02-14T05:28:23.797Z,3.30
2023-02-14T05:30:27.912Z,3.20
2023-02-14T05:32:29.593Z,3.00
2023-02-14T05:34:31.246Z,3.40
2023-02-14T05:36:32.925Z,3.17
2023-02-14T05:38:34.917Z,3.20
2023-02-14T05:40:36.522Z,3.20
2023-02-14T05:42:38.188Z,3.50
2023-02-14T05:44:39.788Z,3.40
2023-02-14T05:46:41.470Z,3.08
2023-02-14T05:48:43.129Z,3.60
2023-02-14T05:50:45.543Z,3.55
2023-02-14T05:52:47.849Z,3.72
2023-02-14T05:54:49.543Z,3.85
2023-02-14T05:56:51.200Z,3.75
2023-02-14T05:58:52.852Z,4.00
2023-02-14T06:00:56.111Z,3.45
2023-02-14T06:02:57.740Z,3.40
2023-02-14T06:04:59.366Z,3.67
2023-02-14T06:07:00.982Z,4.00
2023-02-14T06:09:02.794Z,3.92
2023-02-14T06:11:04.547Z,4.00
2023-02-14T06:13:10.566Z,3.70
2023-02-14T06:15:12.509Z,3.97
2023-02-14T06:17:14.169Z,3.58
2023-02-14T06:19:15.822Z,3.90
2023-02-14T06:21:17.457Z,3.88
2023-02-14T06:23:19.113Z,3.90
2023-02-14T06:25:22.439Z,3.92
2023-02-14T06:27:24.090Z,4.25
2023-02-14T06:29:25.789Z,4.10
2023-02-14T06:31:27.565Z,3.80
2023-02-14T06:33:29.255Z,3.83
2023-02-14T06:35:30.943Z,3.75
2023-02-14T06:37:32.905Z,3.95
2023-02-14T06:39:34.516Z,3.50
2023-02-14T06:41:36.510Z,3.92
2023-02-14T06:43:38.647Z,4.00
2023-02-14T06:45:43.650Z,3.80
2023-02-14T06:47:45.762Z,4.03
2023-02-14T06:49:47.414Z,3.92
2023-02-14T06:51:49.107Z,4.45
2023-02-14T06:53:50.868Z,4.32
2023-02-14T06:55:52.701Z,3.60
2023-02-14T06:57:54.354Z,4.40
2023-02-14T06:59:56.102Z,4.00
2023-02-14T07:01:57.894Z,4.60
2023-02-14T07:03:59.612Z,4.38
2023-02-14T07:06:01.320Z,3.83
2023-02-14T07:08:03.294Z,4.32
2023-02-14T07:10:05.513Z,4.05
2023-02-14T07:12:07.332Z,3.85
2023-02-14T07:14:09.025Z,4.05
2023-02-14T07:16:11.114Z,4.40
2023-02-14T07:18:12.899Z,4.28
2023-02-14T07:20:14.904Z,3.80
2023-02-14T07:22:16.554Z,3.75
2023-02-14T07:24:18.174Z,4.07
2023-02-14T07:26:19.899Z,3.95
2023-02-14T07:28:21.722Z,4.38
2023-02-14T07:30:23.530Z,3.60
2023-02-14T07:32:25.821Z,3.78
2023-02-14T07:34:27.499Z,3.45
2023-02-14T07:36:29.169Z,3.75
2023-02-14T07:38:30.981Z,3.78
2023-02-14T07:40:32.661Z,4.00
2023-02-14T07:42:34.325Z,3.85
2023-02-14T07:44:38.456Z,3.42
2023-02-14T07:46:40.249Z,3.70
2023-02-14T07:48:41.945Z,3.15
2023-02-14T07:50:43.827Z,3.40
2023-02-14T07:52:45.852Z,3.90
2023-02-14T07:54:47.536Z,3.60
2023-02-14T07:56:49.686Z,3.83
2023-02-14T07:58:51.346Z,3.85
2023-02-14T08:00:53.003Z,3.85
2023-02-14T08:02:56.062Z,4.00
2023-02-14T08:04:57.818Z,3.58
2023-02-14T08:06:59.479Z,3.70
2023-02-14T08:09:01.444Z,3.67
2023-02-14T08:11:03.557Z,4.00
2023-02-14T08:13:05.249Z,3.90
2023-02-14T08:15:25.403Z,3.80
2023-02-14T08:17:27.130Z,3.88
2023-02-14T08:19:29.268Z,3.85
2023-02-14T08:21:31.013Z,3.72
2023-02-14T08:23:33.136Z,3.40
2023-02-14T08:25:34.887Z,3.80
2023-02-14T08:27:36.798Z,4.00
2023-02-14T08:29:38.446Z,3.72
2023-02-14T08:31:40.226Z,3.92
2023-02-14T08:33:44.132Z,3.78
2023-02-14T08:35:45.910Z,4.05
2023-02-14T08:37:47.712Z,3.88
2023-02-14T08:39:49.352Z,3.75
2023-02-14T08:41:50.986Z,3.58
2023-02-14T08:43:53.016Z,3.88
2023-02-14T08:45:54.814Z,3.72
2023-02-14T08:48:04.403Z,3.97
2023-02-14T08:50:11.305Z,3.53
2023-02-14T08:52:12.964Z,3.60
2023-02-14T08:54:14.854Z,3.72
2023-02-14T08:56:16.541Z,3.80
2023-02-14T08:58:18.440Z,3.47
2023-02-14T09:00:20.751Z,3.45
2023-02-14T09:02:22.513Z,3.53
2023-02-14T09:04:24.547Z,3.53
2023-02-14T09:06:26.242Z,3.72
2023-02-14T09:08:27.898Z,3.50
2023-02-14T09:10:29.822Z,3.80
2023-02-14T09:12:31.469Z,3.92
2023-02-14T09:14:43.834Z,3.45
2023-02-14T09:16:45.531Z,3.70
2023-02-14T09:18:48.189Z,3.72
2023-02-14T09:20:49.869Z,3.58
2023-02-14T09:22:51.659Z,3.50
2023-02-14T09:24:53.353Z,3.47
2023-02-14T09:26:55.633Z,3.70
2023-02-14T09:28:57.398Z,3.35
2023-02-14T09:31:07.665Z,3.35
2023-02-14T09:33:09.477Z,3.35
2023-02-14T09:35:29.565Z,3.92
2023-02-14T09:37:31.238Z,3.53
2023-02-14T09:39:33.048Z,3.13
2023-02-14T09:41:53.279Z,3.08
2023-02-14T09:44:07.255Z,3.38
2023-02-14T09:46:15.539Z,3.10
2023-02-14T09:48:19.970Z,3.67
2023-02-14T09:50:37.965Z,3.40
2023-02-14T09:52:39.694Z,3.08
2023-02-14T09:54:46.015Z,3.10
2023-02-14T09:56:54.246Z,3.55
2023-02-14T09:59:24.076Z,3.67
2023-02-14T10:01:40.870Z,3.30
2023-02-14T10:04:01.359Z,3.33
2023-02-14T10:06:09.024Z,3.40
2023-02-14T10:08:37.625Z,3.35
2023-02-14T10:10:52.977Z,3.58
2023-02-14T10:13:12.541Z,3.25
2023-02-14T10:15:20.649Z,3.45
2023-02-14T10:17:36.307Z,3.40
2023-02-14T10:19:57.281Z,3.20
2023-02-14T10:22:05.437Z,3.13
2023-02-14T10:24:19.268Z,3.55
2023-02-14T10:26:40.051Z,3.10
2023-02-14T10:28:49.763Z,3.33
2023-02-14T10:31:15.008Z,3.03
2023-02-14T10:33:29.460Z,3.03
2023-02-14T10:35:51.605Z,3.85
2023-02-14T10:38:30.160Z,3.45
2023-02-14T10:40:43.552Z,3.33
2023-02-14T10:43:15.154Z,3.55
2023-02-14T10:45:27.996Z,3.28
2023-02-14T10:47:39.049Z,3.08
2023-02-14T10:52:26.714Z,3.50
2023-02-14T10:54:36.254Z,3.40
2023-02-14T10:56:43.383Z,3.00
2023-02-14T10:58:46.931Z,2.67
2023-02-14T11:01:01.032Z,3.05
2023-02-14T11:03:08.254Z,2.92
2023-02-14T11:05:35.483Z,3.25
2023-02-14T11:07:37.137Z,3.13
2023-02-14T11:09:38.790Z,3.53
2023-02-14T11:11:58.853Z,3.28
2023-02-14T11:14:26.102Z,3.03
2023-02-14T11:16:33.817Z,3.03
2023-02-14T11:18:37.378Z,3.08
2023-02-14T11:20:39.180Z,3.30
2023-02-14T11:22:40.834Z,2.90
2023-02-14T11:24:42.529Z,2.80
2023-02-14T11:26:49.913Z,3.10
2023-02-14T11:28:58.712Z,2.90
2023-02-14T11:31:01.112Z,3.45
2023-02-14T11:33:04.665Z,3.28
2023-02-14T11:35:16.752Z,3.03
2023-02-14T11:37:27.752Z,2.72
2023-02-14T11:39:35.668Z,3.15
2023-02-14T11:41:56.157Z,3.08
2023-02-14T11:44:15.700Z,3.08
2023-02-14T11:46:20.476Z,3.08
2023-02-14T11:48:37.788Z,2.95
2023-02-14T11:50:42.533Z,3.00
2023-02-14T11:52:54.436Z,3.05
2023-02-14T11:54:58.006Z,3.00
2023-02-14T11:57:37.718Z,3.00
2023-02-14T11:59:45.212Z,3.17
2023-02-14T12:01:46.996Z,3.20
2023-02-14T12:03:50.252Z,2.50
2023-02-14T12:05:57.057Z,2.88
2023-02-14T12:08:02.082Z,2.85
2023-02-14T12:10:17.291Z,3.25
2023-02-14T12:12:23.356Z,2.78
2023-02-14T12:14:31.445Z,3.15
2023-02-14T12:16:42.917Z,2.90
2023-02-14T12:18:56.159Z,3.08
2023-02-14T12:21:42.327Z,2.92
2023-02-14T12:24:06.361Z,2.72
2023-02-14T12:26:20.294Z,2.88
2023-02-14T12:28:51.241Z,2.63
2023-02-14T12:30:53.010Z,2.63
2023-02-14T12:32:58.974Z,2.80
2023-02-14T12:35:14.660Z,3.25
2023-02-14T12:38:04.421Z,3.17
2023-02-14T12:40:30.541Z,3.90
2023-02-14T12:42:40.746Z,3.33
2023-02-14T12:45:20.619Z,3.58
2023-02-14T12:47:45.369Z,3.58
2023-02-14T12:50:16.663Z,3.53
2023-02-14T12:54:57.788Z,3.28
2023-02-14T12:56:59.349Z,2.83
2023-02-14T12:59:13.445Z,2.95
2023-02-14T13:01:41.263Z,3.00
2023-02-14T13:03:45.613Z,3.03
2023-02-14T13:06:00.377Z,3.38
2023-02-14T13:08:10.706Z,3.50
2023-02-14T13:10:27.586Z,3.10
2023-02-14T13:12:42.546Z,3.15
2023-02-14T13:14:50.102Z,2.88
2023-02-14T13:17:07.382Z,2.80
2023-02-14T13:19:53.980Z,3.05
2023-02-14T13:21:59.686Z,2.70
2023-02-14T13:24:22.911Z,2.88
2023-02-14T13:26:33.099Z,2.92
2023-02-14T13:28:37.402Z,3.07
2023-02-14T13:30:42.217Z,2.90
2023-02-14T13:32:46.849Z,3.50
2023-02-14T13:34:50.289Z,2.97
2023-02-14T13:36:53.540Z,3.15
2023-02-14T13:38:57.640Z,2.40
2023-02-14T13:41:01.720Z,2.80
2023-02-14T13:43:04.315Z,2.70
2023-02-14T13:45:06.623Z,2.95
2023-02-14T13:47:20.321Z,2.80
2023-02-14T13:49:34.601Z,2.67
2023-02-14T13:51:57.448Z,3.25
2023-02-14T13:53:59.103Z,3.00
2023-02-14T13:56:04.600Z,3.08
2023-02-14T13:58:16.222Z,2.65
2023-02-14T14:00:17.874Z,2.72
2023-02-14T14:02:30.213Z,3.30
2023-02-14T14:04:35.613Z,3.40
2023-02-14T14:07:05.027Z,2.85
2023-02-14T14:09:10.684Z,3.30
2023-02-14T14:11:23.271Z,3.28
2023-02-14T14:13:40.395Z,3.10
2023-02-14T14:16:20.555Z,3.45
2023-02-14T14:18:28.239Z,3.00
2023-02-14T14:20:38.183Z,3.60
2023-02-14T14:22:51.186Z,3.10
2023-02-14T14:25:05.664Z,3.40
2023-02-14T14:27:19.919Z,3.17
2023-02-14T14:29:40.982Z,3.08
2023-02-14T14:31:42.956Z,3.92
2023-02-14T14:33:44.621Z,3.78
2023-02-14T14:36:22.146Z,3.50
2023-02-14T14:38:24.625Z,3.45
2023-02-14T14:40:29.941Z,3.22
2023-02-14T14:42:37.629Z,3.47
2023-02-14T14:44:46.906Z,3.35
2023-02-14T14:46:49.122Z,3.25
2023-02-14T14:48:54.886Z,3.40
2023-02-14T14:50:57.170Z,2.70
2023-02-14T14:53:05.206Z,3.20
2023-02-14T14:55:09.323Z,3.95
2023-02-14T14:57:17.908Z,3.55
2023-02-14T14:59:36.328Z,4.00
2023-02-14T15:01:39.975Z,4.13
2023-02-14T15:03:41.912Z,3.63
2023-02-14T15:05:46.643Z,3.33
2023-02-14T15:07:48.386Z,3.33
2023-02-14T15:09:51.180Z,3.13
2023-02-14T15:12:12.435Z,3.40
2023-02-14T15:14:18.890Z,3.03
2023-02-14T15:16:22.153Z,3.50
2023-02-14T15:18:24.372Z,3.47
2023-02-14T15:20:26.419Z,3.92
2023-02-14T15:22:48.639Z,3.88
2023-02-14T15:24:51.812Z,3.83
2023-02-14T15:26:53.891Z,3.60
2023-02-14T15:29:01.317Z,3.58
2023-02-14T15:31:06.069Z,3.92
2023-02-14T15:33:10.439Z,3.40
2023-02-14T15:35:16.158Z,4.00
2023-02-14T15:37:18.881Z,3.50
2023-02-14T15:39:23.695Z,3.53
2023-02-14T15:41:26.829Z,3.85
2023-02-14T15:43:32.412Z,3.97
2023-02-14T15:45:34.134Z,4.00
2023-02-14T15:47:35.977Z,3.92
2023-02-14T15:49:41.275Z,4.28
2023-02-14T15:51:43.457Z,3.47
2023-02-14T15:53:53.437Z,3.92
2023-02-14T15:56:01.341Z,4.25
2023-02-14T15:58:24.976Z,5.50
2023-02-14T16:00:26.970Z,6.90
2023-02-14T16:02:42.011Z,6.10
2023-02-14T16:04:44.278Z,5.15
2023-02-14T16:06:48.068Z,5.80
2023-02-14T16:08:55.834Z,4.85
2023-02-14T16:11:08.838Z,4.95
2023-02-14T16:13:20.396Z,5.10
2023-02-14T16:15:28.222Z,5.40
2023-02-14T16:17:34.578Z,5.03
2023-02-14T16:19:42.210Z,4.53
2023-02-14T16:21:55.765Z,4.88
2023-02-14T16:24:06.669Z,4.97
2023-02-14T16:26:09.209Z,5.25
2023-02-14T16:28:10.900Z,4.95
2023-02-14T16:30:19.588Z,5.15
2023-02-14T16:32:23.119Z,5.97
2023-02-14T16:34:26.191Z,5.13
2023-02-14T16:36:30.317Z,5.25
2023-02-14T16:38:35.562Z,4.40
2023-02-14T16:40:37.217Z,5.05
2023-02-14T16:42:42.594Z,5.13
2023-02-14T16:44:45.716Z,5.22
2023-02-14T16:46:47.377Z,5.25
2023-02-14T16:48:52.180Z,4.88
2023-02-14T16:50:54.047Z,5.05
2023-02-14T16:52:57.782Z,4.85
2023-02-14T16:54:59.394Z,5.57
2023-02-14T16:57:04.811Z,5.90
2023-02-14T16:59:06.498Z,6.05
2023-02-14T17:01:08.266Z,5.53
2023-02-14T17:03:11.511Z,5.82
2023-02-14T17:05:13.294Z,6.00
2023-02-14T17:07:15.912Z,6.25
2023-02-14T17:09:21.390Z,5.40
2023-02-14T17:11:25.070Z,6.10
2023-02-14T17:13:28.786Z,6.15
2023-02-14T17:15:31.044Z,6.30
2023-02-14T17:17:34.106Z,6.22
2023-02-14T17:19:36.442Z,6.10
2023-02-14T17:21:38.354Z,5.70
2023-02-14T17:23:40.040Z,5.32
2023-02-14T17:25:41.830Z,6.35
2023-02-14T17:27:44.433Z,6.32
2023-02-14T17:29:46.060Z,6.30
2023-02-14T17:31:48.290Z,6.40
2023-02-14T17:33:49.936Z,6.38
2023-02-14T17:35:51.970Z,5.63
2023-02-14T17:37:53.597Z,6.50
2023-02-14T17:39:55.280Z,5.72
2023-02-14T17:41:57.050Z,5.50
2023-02-14T17:44:00.280Z,5.82
2023-02-14T17:46:04.628Z,6.07
2023-02-14T17:48:06.497Z,6.28
2023-02-14T17:50:09.014Z,5.70
2023-02-14T17:52:10.681Z,6.13
2023-02-14T17:54:12.460Z,6.68
2023-02-14T17:56:20.319Z,6.38
2023-02-14T17:58:21.958Z,7.30
2023-02-14T18:00:24.142Z,7.70
2023-02-14T18:02:25.888Z,7.03
2023-02-14T18:04:29.948Z,7.30
2023-02-14T18:06:32.146Z,7.22
2023-02-14T18:08:39.406Z,7.22
2023-02-14T18:10:41.025Z,7.15
2023-02-14T18:12:42.668Z,7.05
2023-02-14T18:14:44.369Z,8.75
2023-02-14T18:16:46.161Z,6.55
2023-02-14T18:18:48.209Z,7.07
2023-02-14T18:21:01.545Z,6.65
2023-02-14T18:23:07.041Z,7.43
2023-02-14T18:25:08.945Z,7.00
2023-02-14T18:27:10.572Z,7.03
2023-02-14T18:29:13.223Z,6.28
2023-02-14T18:31:16.936Z,6.75
2023-02-14T18:33:18.850Z,6.10
2023-02-14T18:35:20.450Z,7.28
2023-02-14T18:37:22.111Z,6.85
2023-02-14T18:39:23.772Z,6.43
2023-02-14T18:41:26.560Z,6.90
2023-02-14T18:43:28.188Z,6.72
2023-02-14T18:45:29.909Z,7.07
2023-02-14T18:47:31.607Z,6.72
2023-02-14T18:49:33.429Z,6.45
2023-02-14T18:51:38.965Z,6.95
2023-02-14T18:53:41.467Z,5.35
2023-02-14T18:55:43.074Z,9.55
2023-02-14T18:57:44.790Z,8.45
2023-02-14T18:59:46.436Z,7.40
2023-02-14T19:01:48.062Z,7.47
2023-02-14T19:03:54.459Z,5.78
2023-02-14T19:05:59.647Z,5.95
2023-02-14T19:08:01.360Z,5.57
2023-02-14T19:10:05.991Z,5.75
2023-02-14T19:12:07.820Z,5.50
2023-02-14T19:14:10.375Z,5.10
2023-02-14T19:16:14.332Z,6.05
2023-02-14T19:18:16.313Z,5.78
2023-02-14T19:20:17.982Z,5.95
2023-02-14T19:22:20.025Z,5.78
2023-02-14T19:24:24.128Z,6.55
2023-02-14T19:26:37.011Z,5.28
2023-02-14T19:28:39.062Z,5.80
2023-02-14T19:30:40.839Z,5.78
2023-02-14T19:32:42.488Z,5.18
2023-02-14T19:34:44.147Z,5.47
2023-02-14T19:36:46.517Z,6.55
2023-02-14T19:38:50.338Z,4.82
2023-02-14T19:40:52.373Z,5.47
2023-02-14T19:42:54.022Z,5.38
2023-02-14T19:44:55.620Z,5.22
2023-02-14T19:46:59.979Z,6.05
2023-02-14T19:49:01.843Z,5.03
2023-02-14T19:51:04.050Z,5.55
2023-02-14T19:53:05.758Z,4.80
2023-02-14T19:55:07.764Z,4.78
2023-02-14T19:57:13.826Z,5.55
2023-02-14T19:59:19.840Z,4.80
2023-02-14T20:01:34.515Z,4.43
2023-02-14T20:03:37.123Z,4.70
2023-02-14T20:05:39.321Z,4.40
2023-02-14T20:07:40.990Z,4.82
2023-02-14T20:09:42.662Z,4.70
2023-02-14T20:11:50.177Z,4.80
2023-02-14T20:13:54.435Z,4.97
2023-02-14T20:15:56.083Z,4.97
2023-02-14T20:17:57.744Z,4.75
2023-02-14T20:19:59.572Z,4.32
2023-02-14T20:22:01.698Z,5.00
2023-02-14T20:24:04.453Z,4.40
2023-02-14T20:26:12.252Z,4.30
2023-02-14T20:28:14.057Z,4.43
2023-02-14T20:30:20.536Z,4.60
2023-02-14T20:32:22.214Z,4.97
2023-02-14T20:34:24.252Z,4.15
2023-02-14T20:36:26.539Z,5.03
2023-02-14T20:38:28.209Z,4.72
2023-02-14T20:40:29.808Z,4.65
2023-02-14T20:42:31.696Z,5.22
2023-02-14T20:44:33.799Z,4.63
2023-02-14T20:46:36.172Z,4.65
2023-02-14T20:48:38.162Z,4.43
2023-02-14T20:50:39.878Z,4.70
2023-02-14T20:52:41.558Z,4.05
2023-02-14T20:54:43.246Z,4.50
2023-02-14T20:56:45.697Z,4.50
2023-02-14T20:58:47.368Z,4.50
2023-02-14T21:00:49.001Z,4.13
2023-02-14T21:02:50.584Z,4.15
2023-02-14T21:04:52.277Z,4.50
2023-02-14T21:06:54.473Z,4.65
2023-02-14T21:08:56.630Z,4.55
2023-02-14T21:10:58.858Z,4.05
2023-02-14T21:13:00.687Z,4.40
2023-02-14T21:15:02.370Z,4.32
2023-02-14T21:17:04.677Z,4.18
2023-02-14T21:19:06.493Z,4.18
2023-02-14T21:21:22.391Z,4.13
2023-02-14T21:23:24.117Z,4.35
2023-02-14T21:25:26.745Z,4.22
2023-02-14T21:27:28.416Z,4.55
2023-02-14T21:29:30.089Z,4.13
2023-02-14T21:31:33.008Z,4.70
2023-02-14T21:33:35.524Z,3.85
2023-02-14T21:35:37.382Z,4.07
2023-02-14T21:37:39.015Z,4.53
2023-02-14T21:39:40.602Z,4.00
2023-02-14T21:41:42.387Z,3.75
2023-02-14T21:43:46.136Z,3.90
2023-02-14T21:45:54.579Z,4.53
2023-02-14T21:48:15.217Z,3.60
2023-02-14T21:50:32.153Z,4.25
2023-02-14T21:52:34.246Z,4.07
2023-02-14T21:54:35.902Z,3.80
2023-02-14T21:56:38.918Z,4.20
2023-02-14T21:58:41.149Z,3.58
2023-02-14T22:00:45.759Z,3.67
2023-02-14T22:02:48.588Z,3.75
2023-02-14T22:04:50.250Z,4.10
2023-02-14T22:06:52.233Z,3.65
2023-02-14T22:08:55.178Z,3.83
2023-02-14T22:10:57.485Z,3.30
2023-02-14T22:12:59.125Z,3.30
2023-02-14T22:15:01.384Z,3.90
2023-02-14T22:17:03.043Z,3.45
2023-02-14T22:19:12.100Z,3.60
2023-02-14T22:21:16.624Z,3.42
2023-02-14T22:23:18.294Z,3.33
2023-02-14T22:25:19.920Z,3.85
2023-02-14T22:27:21.569Z,3.53
2023-02-14T22:29:23.179Z,3.78
2023-02-14T22:31:26.488Z,3.85
2023-02-14T22:33:28.231Z,3.45
2023-02-14T22:35:29.963Z,3.60
2023-02-14T22:37:31.590Z,3.95
2023-02-14T22:39:33.424Z,3.72
2023-02-14T22:41:37.799Z,3.70
2023-02-14T22:43:40.033Z,3.53
2023-02-14T22:45:41.736Z,3.72
2023-02-14T22:47:43.353Z,3.38
2023-02-14T22:49:45.043Z,4.28
2023-02-14T22:51:46.824Z,3.85
2023-02-14T22:53:50.039Z,3.60
2023-02-14T22:55:51.642Z,3.97
2023-02-14T22:57:53.420Z,3.55
2023-02-14T22:59:55.031Z,3.50
2023-02-14T23:01:56.851Z,4.30
2023-02-14T23:04:00.201Z,4.13
2023-02-14T23:06:02.205Z,3.90
2023-02-14T23:08:04.058Z,4.35
2023-02-14T23:10:07.746Z,3.88
2023-02-14T23:12:29.401Z,3.60
2023-02-14T23:14:49.773Z,3.60
2023-02-14T23:17:10.866Z,3.50
2023-02-14T23:19:36.573Z,3.60
2023-02-14T23:21:56.345Z,4.30
2023-02-14T23:23:58.043Z,3.60
2023-02-14T23:26:00.604Z,3.55
2023-02-14T23:28:02.671Z,3.97
2023-02-14T23:30:07.739Z,3.78
2023-02-14T23:32:09.759Z,3.30
2023-02-14T23:34:11.745Z,3.58
2023-02-14T23:36:13.414Z,3.50
2023-02-14T23:38:15.072Z,3.50
2023-02-14T23:40:17.044Z,3.60
2023-02-14T23:42:18.896Z,3.80
2023-02-14T23:44:25.858Z,3.60
2023-02-14T23:46:27.492Z,4.15
2023-02-14T23:48:29.105Z,3.08
2023-02-14T23:50:31.346Z,4.18
2023-02-14T23:52:33.002Z,3.38
2023-02-14T23:54:35.282Z,3.67
2023-02-14T23:56:37.396Z,4.20
2023-02-14T23:58:39.061Z,4.43
